sensor_id;sensor_type;location;lat;lon;timestamp;temperature;humidity
41220;DHT22;26951;47.338;9.196;2023-07-24T00:02:25;16.50;48.90
41220;DHT22;26951;47.338;9.196;2023-07-24T00:05:09;16.60;49.80
41220;DHT22;26951;47.338;9.196;2023-07-24T00:07:54;16.50;49.60
41220;DHT22;26951;47.338;9.196;2023-07-24T00:10:38;16.40;49.00
41220;DHT22;26951;47.338;9.196;2023-07-24T00:13:23;16.50;48.80
41220;DHT22;26951;47.338;9.196;2023-07-24T00:16:10;16.40;49.60
41220;DHT22;26951;47.338;9.196;2023-07-24T00:18:54;16.40;49.10
41220;DHT22;26951;47.338;9.196;2023-07-24T00:21:38;16.40;49.30
41220;DHT22;26951;47.338;9.196;2023-07-24T00:24:23;16.40;49.80
41220;DHT22;26951;47.338;9.196;2023-07-24T00:27:07;16.40;49.20
41220;DHT22;26951;47.338;9.196;2023-07-24T00:29:51;16.40;49.90
41220;DHT22;26951;47.338;9.196;2023-07-24T00:32:35;16.40;48.80
41220;DHT22;26951;47.338;9.196;2023-07-24T00:35:19;16.50;50.30
41220;DHT22;26951;47.338;9.196;2023-07-24T00:38:03;16.40;52.40
41220;DHT22;26951;47.338;9.196;2023-07-24T00:40:47;16.50;55.20
41220;DHT22;26951;47.338;9.196;2023-07-24T00:43:31;16.60;53.50
41220;DHT22;26951;47.338;9.196;2023-07-24T00:46:16;16.70;51.10
41220;DHT22;26951;47.338;9.196;2023-07-24T00:49:01;16.80;52.40
41220;DHT22;26951;47.338;9.196;2023-07-24T00:51:46;16.90;52.40
41220;DHT22;26951;47.338;9.196;2023-07-24T00:54:31;16.90;52.90
41220;DHT22;26951;47.338;9.196;2023-07-24T00:57:16;17.00;54.00
41220;DHT22;26951;47.338;9.196;2023-07-24T01:00:01;17.00;53.90
41220;DHT22;26951;47.338;9.196;2023-07-24T01:02:47;17.00;54.20
41220;DHT22;26951;47.338;9.196;2023-07-24T01:05:32;16.90;54.20
41220;DHT22;26951;47.338;9.196;2023-07-24T01:08:16;16.90;55.70
41220;DHT22;26951;47.338;9.196;2023-07-24T01:11:06;16.90;54.70
41220;DHT22;26951;47.338;9.196;2023-07-24T01:14:08;16.90;55.10
41220;DHT22;26951;47.338;9.196;2023-07-24T01:16:55;16.90;55.00
41220;DHT22;26951;47.338;9.196;2023-07-24T01:19:48;16.90;56.30
41220;DHT22;26951;47.338;9.196;2023-07-24T01:22:38;16.90;56.10
41220;DHT22;26951;47.338;9.196;2023-07-24T01:25:34;16.80;56.60
41220;DHT22;26951;47.338;9.196;2023-07-24T01:28:22;16.80;55.60
41220;DHT22;26951;47.338;9.196;2023-07-24T01:31:06;16.80;55.00
41220;DHT22;26951;47.338;9.196;2023-07-24T01:33:50;16.80;54.50
41220;DHT22;26951;47.338;9.196;2023-07-24T01:36:34;16.80;53.60
41220;DHT22;26951;47.338;9.196;2023-07-24T01:39:19;16.80;54.10
41220;DHT22;26951;47.338;9.196;2023-07-24T01:42:04;16.80;55.10
41220;DHT22;26951;47.338;9.196;2023-07-24T01:44:55;16.80;54.50
41220;DHT22;26951;47.338;9.196;2023-07-24T01:47:39;16.80;54.10
41220;DHT22;26951;47.338;9.196;2023-07-24T01:50:23;16.80;53.90
41220;DHT22;26951;47.338;9.196;2023-07-24T01:53:08;16.80;53.40
41220;DHT22;26951;47.338;9.196;2023-07-24T01:55:53;16.70;52.70
41220;DHT22;26951;47.338;9.196;2023-07-24T01:58:37;16.70;53.70
41220;DHT22;26951;47.338;9.196;2023-07-24T02:01:21;16.60;53.20
41220;DHT22;26951;47.338;9.196;2023-07-24T02:04:05;16.50;51.80
41220;DHT22;26951;47.338;9.196;2023-07-24T02:06:50;16.50;51.40
41220;DHT22;26951;47.338;9.196;2023-07-24T02:09:34;16.50;51.80
41220;DHT22;26951;47.338;9.196;2023-07-24T02:12:18;16.50;50.90
41220;DHT22;26951;47.338;9.196;2023-07-24T02:15:02;16.50;50.70
41220;DHT22;26951;47.338;9.196;2023-07-24T02:17:46;16.50;51.80
41220;DHT22;26951;47.338;9.196;2023-07-24T02:20:31;16.50;52.70
41220;DHT22;26951;47.338;9.196;2023-07-24T02:23:15;16.50;51.90
41220;DHT22;26951;47.338;9.196;2023-07-24T02:25:59;16.40;52.00
41220;DHT22;26951;47.338;9.196;2023-07-24T02:28:43;16.40;51.10
41220;DHT22;26951;47.338;9.196;2023-07-24T02:31:27;16.40;50.80
41220;DHT22;26951;47.338;9.196;2023-07-24T02:34:12;16.40;52.40
41220;DHT22;26951;47.338;9.196;2023-07-24T02:36:56;16.40;52.30
41220;DHT22;26951;47.338;9.196;2023-07-24T02:39:40;16.40;51.60
41220;DHT22;26951;47.338;9.196;2023-07-24T02:42:24;16.40;51.50
41220;DHT22;26951;47.338;9.196;2023-07-24T02:45:08;16.40;52.40
41220;DHT22;26951;47.338;9.196;2023-07-24T02:47:54;16.40;52.90
41220;DHT22;26951;47.338;9.196;2023-07-24T02:50:38;16.30;53.50
41220;DHT22;26951;47.338;9.196;2023-07-24T02:53:22;16.30;52.40
41220;DHT22;26951;47.338;9.196;2023-07-24T02:56:07;16.30;52.20
41220;DHT22;26951;47.338;9.196;2023-07-24T02:58:50;16.30;52.00
41220;DHT22;26951;47.338;9.196;2023-07-24T03:01:35;16.40;53.20
41220;DHT22;26951;47.338;9.196;2023-07-24T03:04:19;16.40;53.80
41220;DHT22;26951;47.338;9.196;2023-07-24T03:07:03;16.40;51.80
41220;DHT22;26951;47.338;9.196;2023-07-24T03:09:47;16.40;51.20
41220;DHT22;26951;47.338;9.196;2023-07-24T03:12:33;16.40;51.30
41220;DHT22;26951;47.338;9.196;2023-07-24T03:15:18;16.40;52.40
41220;DHT22;26951;47.338;9.196;2023-07-24T03:18:02;16.50;54.20
41220;DHT22;26951;47.338;9.196;2023-07-24T03:20:46;16.50;54.10
41220;DHT22;26951;47.338;9.196;2023-07-24T03:23:30;16.50;53.30
41220;DHT22;26951;47.338;9.196;2023-07-24T03:26:14;16.50;53.60
41220;DHT22;26951;47.338;9.196;2023-07-24T03:28:59;16.50;54.10
41220;DHT22;26951;47.338;9.196;2023-07-24T03:31:43;16.50;52.80
41220;DHT22;26951;47.338;9.196;2023-07-24T03:34:27;16.50;52.50
41220;DHT22;26951;47.338;9.196;2023-07-24T03:37:11;16.50;52.20
41220;DHT22;26951;47.338;9.196;2023-07-24T03:39:55;16.60;52.70
41220;DHT22;26951;47.338;9.196;2023-07-24T03:42:40;16.60;53.20
41220;DHT22;26951;47.338;9.196;2023-07-24T03:45:24;16.60;53.20
41220;DHT22;26951;47.338;9.196;2023-07-24T03:48:08;16.60;53.50
41220;DHT22;26951;47.338;9.196;2023-07-24T03:50:58;16.60;53.30
41220;DHT22;26951;47.338;9.196;2023-07-24T03:53:43;16.60;53.80
41220;DHT22;26951;47.338;9.196;2023-07-24T03:56:27;16.50;52.90
41220;DHT22;26951;47.338;9.196;2023-07-24T03:59:11;16.50;52.20
41220;DHT22;26951;47.338;9.196;2023-07-24T04:01:56;16.50;52.20
41220;DHT22;26951;47.338;9.196;2023-07-24T04:04:40;16.50;52.50
41220;DHT22;26951;47.338;9.196;2023-07-24T04:07:25;16.50;52.80
41220;DHT22;26951;47.338;9.196;2023-07-24T04:10:09;16.40;52.40
41220;DHT22;26951;47.338;9.196;2023-07-24T04:12:53;16.40;52.90
41220;DHT22;26951;47.338;9.196;2023-07-24T04:15:37;16.50;53.10
41220;DHT22;26951;47.338;9.196;2023-07-24T04:18:23;16.50;53.60
41220;DHT22;26951;47.338;9.196;2023-07-24T04:21:07;16.50;54.30
41220;DHT22;26951;47.338;9.196;2023-07-24T04:23:51;16.50;54.40
41220;DHT22;26951;47.338;9.196;2023-07-24T04:26:36;16.50;54.70
41220;DHT22;26951;47.338;9.196;2023-07-24T04:29:20;16.60;55.50
41220;DHT22;26951;47.338;9.196;2023-07-24T04:32:07;16.60;56.10
41220;DHT22;26951;47.338;9.196;2023-07-24T04:34:51;16.60;56.50
41220;DHT22;26951;47.338;9.196;2023-07-24T04:37:35;16.60;55.80
41220;DHT22;26951;47.338;9.196;2023-07-24T04:40:19;16.60;56.20
41220;DHT22;26951;47.338;9.196;2023-07-24T04:43:04;16.70;57.30
41220;DHT22;26951;47.338;9.196;2023-07-24T04:45:48;16.80;57.80
41220;DHT22;26951;47.338;9.196;2023-07-24T04:48:32;16.80;57.60
41220;DHT22;26951;47.338;9.196;2023-07-24T04:51:16;16.90;57.70
41220;DHT22;26951;47.338;9.196;2023-07-24T04:54:02;16.90;58.40
41220;DHT22;26951;47.338;9.196;2023-07-24T04:56:47;17.00;58.90
41220;DHT22;26951;47.338;9.196;2023-07-24T04:59:31;17.10;59.40
41220;DHT22;26951;47.338;9.196;2023-07-24T05:02:15;17.10;59.60
41220;DHT22;26951;47.338;9.196;2023-07-24T05:04:59;17.20;61.00
41220;DHT22;26951;47.338;9.196;2023-07-24T05:07:43;17.30;61.00
41220;DHT22;26951;47.338;9.196;2023-07-24T05:10:27;17.30;60.90
41220;DHT22;26951;47.338;9.196;2023-07-24T05:13:12;17.30;60.80
41220;DHT22;26951;47.338;9.196;2023-07-24T05:15:56;17.40;57.00
41220;DHT22;26951;47.338;9.196;2023-07-24T05:18:40;17.40;53.50
41220;DHT22;26951;47.338;9.196;2023-07-24T05:21:24;17.60;52.00
41220;DHT22;26951;47.338;9.196;2023-07-24T05:24:08;17.60;53.00
41220;DHT22;26951;47.338;9.196;2023-07-24T05:26:52;17.70;54.30
41220;DHT22;26951;47.338;9.196;2023-07-24T05:29:36;17.70;55.50
41220;DHT22;26951;47.338;9.196;2023-07-24T05:32:20;17.80;63.00
41220;DHT22;26951;47.338;9.196;2023-07-24T05:35:05;17.80;64.60
41220;DHT22;26951;47.338;9.196;2023-07-24T05:37:49;17.60;62.80
41220;DHT22;26951;47.338;9.196;2023-07-24T05:40:33;17.60;63.50
41220;DHT22;26951;47.338;9.196;2023-07-24T05:43:17;17.50;66.20
41220;DHT22;26951;47.338;9.196;2023-07-24T05:46:01;17.50;66.10
41220;DHT22;26951;47.338;9.196;2023-07-24T05:48:45;17.40;66.90
41220;DHT22;26951;47.338;9.196;2023-07-24T05:51:29;17.40;65.70
41220;DHT22;26951;47.338;9.196;2023-07-24T05:54:13;17.40;65.50
41220;DHT22;26951;47.338;9.196;2023-07-24T05:56:58;17.40;65.60
41220;DHT22;26951;47.338;9.196;2023-07-24T05:59:42;17.50;65.80
41220;DHT22;26951;47.338;9.196;2023-07-24T06:02:26;17.60;66.80
41220;DHT22;26951;47.338;9.196;2023-07-24T06:05:10;17.70;67.80
41220;DHT22;26951;47.338;9.196;2023-07-24T06:07:54;17.80;68.90
41220;DHT22;26951;47.338;9.196;2023-07-24T06:10:38;17.90;68.50
41220;DHT22;26951;47.338;9.196;2023-07-24T06:13:23;18.00;67.80
41220;DHT22;26951;47.338;9.196;2023-07-24T06:16:07;17.90;66.50
41220;DHT22;26951;47.338;9.196;2023-07-24T06:18:51;17.90;66.30
41220;DHT22;26951;47.338;9.196;2023-07-24T06:21:35;18.00;66.10
41220;DHT22;26951;47.338;9.196;2023-07-24T06:24:20;18.00;65.90
41220;DHT22;26951;47.338;9.196;2023-07-24T06:27:04;18.00;66.10
41220;DHT22;26951;47.338;9.196;2023-07-24T06:29:50;18.10;66.70
41220;DHT22;26951;47.338;9.196;2023-07-24T06:32:35;18.20;65.50
41220;DHT22;26951;47.338;9.196;2023-07-24T06:35:19;18.20;64.60
41220;DHT22;26951;47.338;9.196;2023-07-24T06:38:03;18.20;65.40
41220;DHT22;26951;47.338;9.196;2023-07-24T06:40:47;18.30;65.60
41220;DHT22;26951;47.338;9.196;2023-07-24T06:43:31;18.40;65.30
41220;DHT22;26951;47.338;9.196;2023-07-24T06:46:15;18.50;65.40
41220;DHT22;26951;47.338;9.196;2023-07-24T06:48:59;18.50;65.60
41220;DHT22;26951;47.338;9.196;2023-07-24T06:51:43;18.60;65.60
41220;DHT22;26951;47.338;9.196;2023-07-24T06:54:27;18.70;65.50
41220;DHT22;26951;47.338;9.196;2023-07-24T06:57:11;18.70;64.30
41220;DHT22;26951;47.338;9.196;2023-07-24T06:59:56;18.70;64.50
41220;DHT22;26951;47.338;9.196;2023-07-24T07:02:40;18.80;65.80
41220;DHT22;26951;47.338;9.196;2023-07-24T07:05:24;18.80;65.00
41220;DHT22;26951;47.338;9.196;2023-07-24T07:08:08;18.80;65.30
41220;DHT22;26951;47.338;9.196;2023-07-24T07:10:59;18.90;65.30
41220;DHT22;26951;47.338;9.196;2023-07-24T07:13:44;18.90;65.10
41220;DHT22;26951;47.338;9.196;2023-07-24T07:16:28;18.90;64.80
41220;DHT22;26951;47.338;9.196;2023-07-24T07:19:12;18.90;64.60
41220;DHT22;26951;47.338;9.196;2023-07-24T07:21:56;18.80;64.50
41220;DHT22;26951;47.338;9.196;2023-07-24T07:24:40;18.80;64.30
41220;DHT22;26951;47.338;9.196;2023-07-24T07:27:24;18.70;65.50
41220;DHT22;26951;47.338;9.196;2023-07-24T07:30:09;18.60;65.30
41220;DHT22;26951;47.338;9.196;2023-07-24T07:32:53;18.60;66.20
41220;DHT22;26951;47.338;9.196;2023-07-24T07:35:37;18.60;66.50
41220;DHT22;26951;47.338;9.196;2023-07-24T07:38:21;18.60;66.40
41220;DHT22;26951;47.338;9.196;2023-07-24T07:41:06;18.60;66.90
41220;DHT22;26951;47.338;9.196;2023-07-24T07:43:50;18.60;67.00
41220;DHT22;26951;47.338;9.196;2023-07-24T07:46:34;18.60;66.70
41220;DHT22;26951;47.338;9.196;2023-07-24T07:49:18;18.60;65.90
41220;DHT22;26951;47.338;9.196;2023-07-24T07:52:03;18.60;66.00
41220;DHT22;26951;47.338;9.196;2023-07-24T07:54:48;18.70;67.50
41220;DHT22;26951;47.338;9.196;2023-07-24T07:57:36;18.70;68.20
41220;DHT22;26951;47.338;9.196;2023-07-24T08:00:21;18.70;67.70
41220;DHT22;26951;47.338;9.196;2023-07-24T08:03:06;18.80;68.10
41220;DHT22;26951;47.338;9.196;2023-07-24T08:05:50;18.80;68.00
41220;DHT22;26951;47.338;9.196;2023-07-24T08:08:34;18.80;67.70
41220;DHT22;26951;47.338;9.196;2023-07-24T08:11:18;18.90;68.60
41220;DHT22;26951;47.338;9.196;2023-07-24T08:14:03;18.90;69.00
41220;DHT22;26951;47.338;9.196;2023-07-24T08:16:50;19.00;69.00
41220;DHT22;26951;47.338;9.196;2023-07-24T08:19:35;19.00;68.90
41220;DHT22;26951;47.338;9.196;2023-07-24T08:22:19;19.00;69.40
41220;DHT22;26951;47.338;9.196;2023-07-24T08:25:04;19.10;70.20
41220;DHT22;26951;47.338;9.196;2023-07-24T08:27:48;19.10;70.20
41220;DHT22;26951;47.338;9.196;2023-07-24T08:30:33;19.10;70.10
41220;DHT22;26951;47.338;9.196;2023-07-24T08:33:18;19.20;71.40
41220;DHT22;26951;47.338;9.196;2023-07-24T08:36:07;19.30;72.00
41220;DHT22;26951;47.338;9.196;2023-07-24T08:38:51;19.40;72.80
41220;DHT22;26951;47.338;9.196;2023-07-24T08:41:36;19.60;73.80
41220;DHT22;26951;47.338;9.196;2023-07-24T08:44:21;19.70;74.20
41220;DHT22;26951;47.338;9.196;2023-07-24T08:47:10;19.80;73.20
41220;DHT22;26951;47.338;9.196;2023-07-24T08:49:56;20.00;72.60
41220;DHT22;26951;47.338;9.196;2023-07-24T08:52:40;20.20;73.00
41220;DHT22;26951;47.338;9.196;2023-07-24T08:55:26;20.40;74.00
41220;DHT22;26951;47.338;9.196;2023-07-24T08:58:10;20.50;73.90
41220;DHT22;26951;47.338;9.196;2023-07-24T09:00:56;20.70;73.90
41220;DHT22;26951;47.338;9.196;2023-07-24T09:03:41;20.80;72.60
41220;DHT22;26951;47.338;9.196;2023-07-24T09:06:26;21.00;70.30
41220;DHT22;26951;47.338;9.196;2023-07-24T09:09:14;21.10;69.80
41220;DHT22;26951;47.338;9.196;2023-07-24T09:11:58;21.30;70.70
41220;DHT22;26951;47.338;9.196;2023-07-24T09:14:44;21.50;69.00
41220;DHT22;26951;47.338;9.196;2023-07-24T09:17:29;21.70;66.30
41220;DHT22;26951;47.338;9.196;2023-07-24T09:20:13;21.90;63.20
41220;DHT22;26951;47.338;9.196;2023-07-24T09:22:57;22.10;63.30
41220;DHT22;26951;47.338;9.196;2023-07-24T09:25:43;22.30;63.30
41220;DHT22;26951;47.338;9.196;2023-07-24T09:28:28;22.60;64.50
41220;DHT22;26951;47.338;9.196;2023-07-24T09:31:12;22.70;61.40
41220;DHT22;26951;47.338;9.196;2023-07-24T09:33:56;22.80;59.80
41220;DHT22;26951;47.338;9.196;2023-07-24T09:36:40;22.90;60.70
41220;DHT22;26951;47.338;9.196;2023-07-24T09:39:25;23.00;60.10
41220;DHT22;26951;47.338;9.196;2023-07-24T09:42:10;23.10;59.00
41220;DHT22;26951;47.338;9.196;2023-07-24T09:44:54;23.20;58.00
41220;DHT22;26951;47.338;9.196;2023-07-24T09:47:39;23.30;57.30
41220;DHT22;26951;47.338;9.196;2023-07-24T09:50:24;23.40;56.80
41220;DHT22;26951;47.338;9.196;2023-07-24T09:56:08;23.70;55.70
41220;DHT22;26951;47.338;9.196;2023-07-24T09:58:52;23.90;54.10
41220;DHT22;26951;47.338;9.196;2023-07-24T10:01:40;23.90;54.30
41220;DHT22;26951;47.338;9.196;2023-07-24T10:04:24;23.90;52.10
41220;DHT22;26951;47.338;9.196;2023-07-24T10:07:09;23.70;52.00
41220;DHT22;26951;47.338;9.196;2023-07-24T10:09:53;23.80;53.90
41220;DHT22;26951;47.338;9.196;2023-07-24T10:12:38;23.80;54.20
41220;DHT22;26951;47.338;9.196;2023-07-24T10:15:23;23.80;56.20
41220;DHT22;26951;47.338;9.196;2023-07-24T10:18:08;23.90;55.40
41220;DHT22;26951;47.338;9.196;2023-07-24T10:21:04;23.80;53.50
41220;DHT22;26951;47.338;9.196;2023-07-24T10:23:48;23.80;52.80
41220;DHT22;26951;47.338;9.196;2023-07-24T10:26:34;23.70;53.60
41220;DHT22;26951;47.338;9.196;2023-07-24T10:29:18;23.50;53.20
41220;DHT22;26951;47.338;9.196;2023-07-24T10:32:04;23.40;52.90
41220;DHT22;26951;47.338;9.196;2023-07-24T10:34:57;23.20;53.50
41220;DHT22;26951;47.338;9.196;2023-07-24T10:37:42;23.20;53.80
41220;DHT22;26951;47.338;9.196;2023-07-24T10:40:26;23.10;54.20
41220;DHT22;26951;47.338;9.196;2023-07-24T10:43:13;23.10;54.40
41220;DHT22;26951;47.338;9.196;2023-07-24T10:45:57;23.10;53.40
41220;DHT22;26951;47.338;9.196;2023-07-24T10:48:49;23.10;54.20
41220;DHT22;26951;47.338;9.196;2023-07-24T10:51:34;23.00;54.60
41220;DHT22;26951;47.338;9.196;2023-07-24T10:54:22;22.80;55.40
41220;DHT22;26951;47.338;9.196;2023-07-24T10:57:06;22.60;55.10
41220;DHT22;26951;47.338;9.196;2023-07-24T10:59:50;22.50;55.80
41220;DHT22;26951;47.338;9.196;2023-07-24T11:02:35;22.40;56.40
41220;DHT22;26951;47.338;9.196;2023-07-24T11:05:19;22.30;56.70
41220;DHT22;26951;47.338;9.196;2023-07-24T11:08:16;22.10;57.00
41220;DHT22;26951;47.338;9.196;2023-07-24T11:11:01;22.00;56.70
41220;DHT22;26951;47.338;9.196;2023-07-24T11:13:45;21.90;56.60
41220;DHT22;26951;47.338;9.196;2023-07-24T11:16:30;21.90;57.20
41220;DHT22;26951;47.338;9.196;2023-07-24T11:19:25;21.80;57.20
41220;DHT22;26951;47.338;9.196;2023-07-24T11:22:09;21.70;57.10
41220;DHT22;26951;47.338;9.196;2023-07-24T11:24:57;21.70;56.30
41220;DHT22;26951;47.338;9.196;2023-07-24T11:27:44;21.60;57.40
41220;DHT22;26951;47.338;9.196;2023-07-24T11:30:28;21.60;57.40
41220;DHT22;26951;47.338;9.196;2023-07-24T11:33:15;21.50;57.60
41220;DHT22;26951;47.338;9.196;2023-07-24T11:35:59;21.30;58.30
41220;DHT22;26951;47.338;9.196;2023-07-24T11:38:47;21.20;59.30
41220;DHT22;26951;47.338;9.196;2023-07-24T11:41:32;21.10;59.00
41220;DHT22;26951;47.338;9.196;2023-07-24T11:44:27;21.00;58.20
41220;DHT22;26951;47.338;9.196;2023-07-24T11:47:11;21.00;58.90
41220;DHT22;26951;47.338;9.196;2023-07-24T11:50:00;20.90;59.80
41220;DHT22;26951;47.338;9.196;2023-07-24T11:52:49;20.80;58.80
41220;DHT22;26951;47.338;9.196;2023-07-24T11:55:33;20.90;59.20
41220;DHT22;26951;47.338;9.196;2023-07-24T11:58:18;20.90;61.00
41220;DHT22;26951;47.338;9.196;2023-07-24T12:01:03;20.90;59.50
41220;DHT22;26951;47.338;9.196;2023-07-24T12:03:47;21.10;59.20
41220;DHT22;26951;47.338;9.196;2023-07-24T12:06:34;21.10;61.00
41220;DHT22;26951;47.338;9.196;2023-07-24T12:09:18;21.30;62.10
41220;DHT22;26951;47.338;9.196;2023-07-24T12:12:03;21.40;62.40
41220;DHT22;26951;47.338;9.196;2023-07-24T12:14:48;21.60;65.70
41220;DHT22;26951;47.338;9.196;2023-07-24T12:17:32;21.80;62.20
41220;DHT22;26951;47.338;9.196;2023-07-24T12:20:16;21.80;59.50
41220;DHT22;26951;47.338;9.196;2023-07-24T12:23:00;21.90;57.20
41220;DHT22;26951;47.338;9.196;2023-07-24T12:25:44;22.00;56.10
41220;DHT22;26951;47.338;9.196;2023-07-24T12:28:28;22.10;57.40
41220;DHT22;26951;47.338;9.196;2023-07-24T12:31:12;22.10;57.10
41220;DHT22;26951;47.338;9.196;2023-07-24T12:33:57;22.30;56.20
41220;DHT22;26951;47.338;9.196;2023-07-24T12:36:41;22.40;57.70
41220;DHT22;26951;47.338;9.196;2023-07-24T12:39:25;22.60;57.90
41220;DHT22;26951;47.338;9.196;2023-07-24T12:42:10;22.90;57.20
41220;DHT22;26951;47.338;9.196;2023-07-24T12:44:54;23.10;56.80
41220;DHT22;26951;47.338;9.196;2023-07-24T12:47:38;23.20;55.90
41220;DHT22;26951;47.338;9.196;2023-07-24T12:50:22;23.30;60.70
41220;DHT22;26951;47.338;9.196;2023-07-24T12:53:07;23.60;60.80
41220;DHT22;26951;47.338;9.196;2023-07-24T12:55:51;23.90;58.50
41220;DHT22;26951;47.338;9.196;2023-07-24T12:58:35;24.10;55.70
41220;DHT22;26951;47.338;9.196;2023-07-24T13:01:19;24.30;53.80
41220;DHT22;26951;47.338;9.196;2023-07-24T13:04:04;24.40;54.20
41220;DHT22;26951;47.338;9.196;2023-07-24T13:06:48;24.50;55.70
41220;DHT22;26951;47.338;9.196;2023-07-24T13:09:32;24.70;53.90
41220;DHT22;26951;47.338;9.196;2023-07-24T13:12:16;24.80;52.60
41220;DHT22;26951;47.338;9.196;2023-07-24T13:15:01;24.80;51.10
41220;DHT22;26951;47.338;9.196;2023-07-24T13:17:45;24.90;50.60
41220;DHT22;26951;47.338;9.196;2023-07-24T13:20:30;25.00;51.00
41220;DHT22;26951;47.338;9.196;2023-07-24T13:23:14;25.00;50.70
41220;DHT22;26951;47.338;9.196;2023-07-24T13:25:58;25.20;50.50
41220;DHT22;26951;47.338;9.196;2023-07-24T13:28:42;25.30;50.20
41220;DHT22;26951;47.338;9.196;2023-07-24T13:31:26;25.30;49.50
41220;DHT22;26951;47.338;9.196;2023-07-24T13:34:12;25.40;50.40
41220;DHT22;26951;47.338;9.196;2023-07-24T13:36:56;25.50;49.20
41220;DHT22;26951;47.338;9.196;2023-07-24T13:39:40;25.50;49.00
41220;DHT22;26951;47.338;9.196;2023-07-24T13:42:25;25.50;48.70
41220;DHT22;26951;47.338;9.196;2023-07-24T13:45:09;25.50;49.60
41220;DHT22;26951;47.338;9.196;2023-07-24T13:47:54;25.50;48.60
41220;DHT22;26951;47.338;9.196;2023-07-24T13:50:38;25.30;45.90
41220;DHT22;26951;47.338;9.196;2023-07-24T13:53:22;25.20;47.10
41220;DHT22;26951;47.338;9.196;2023-07-24T13:56:06;25.00;47.80
41220;DHT22;26951;47.338;9.196;2023-07-24T13:58:51;25.00;48.80
41220;DHT22;26951;47.338;9.196;2023-07-24T14:01:35;25.00;49.30
41220;DHT22;26951;47.338;9.196;2023-07-24T14:04:19;25.10;49.00
41220;DHT22;26951;47.338;9.196;2023-07-24T14:07:03;25.20;47.00
41220;DHT22;26951;47.338;9.196;2023-07-24T14:09:47;25.10;46.20
41220;DHT22;26951;47.338;9.196;2023-07-24T14:12:32;25.00;46.60
41220;DHT22;26951;47.338;9.196;2023-07-24T14:15:16;24.80;47.30
41220;DHT22;26951;47.338;9.196;2023-07-24T14:18:00;24.70;47.90
41220;DHT22;26951;47.338;9.196;2023-07-24T14:20:44;24.80;48.90
41220;DHT22;26951;47.338;9.196;2023-07-24T14:23:28;24.70;48.40
41220;DHT22;26951;47.338;9.196;2023-07-24T14:26:12;24.50;48.60
41220;DHT22;26951;47.338;9.196;2023-07-24T14:28:56;24.40;48.80
41220;DHT22;26951;47.338;9.196;2023-07-24T14:31:40;24.40;49.10
41220;DHT22;26951;47.338;9.196;2023-07-24T14:34:25;24.30;49.30
41220;DHT22;26951;47.338;9.196;2023-07-24T14:37:09;24.20;50.00
41220;DHT22;26951;47.338;9.196;2023-07-24T14:39:53;24.20;49.80
41220;DHT22;26951;47.338;9.196;2023-07-24T14:42:37;24.20;50.50
41220;DHT22;26951;47.338;9.196;2023-07-24T14:45:21;24.10;49.60
41220;DHT22;26951;47.338;9.196;2023-07-24T14:48:05;24.10;50.10
41220;DHT22;26951;47.338;9.196;2023-07-24T14:50:53;24.00;50.80
41220;DHT22;26951;47.338;9.196;2023-07-24T14:53:37;23.80;51.20
41220;DHT22;26951;47.338;9.196;2023-07-24T14:56:21;23.70;52.20
41220;DHT22;26951;47.338;9.196;2023-07-24T14:59:05;23.60;53.50
41220;DHT22;26951;47.338;9.196;2023-07-24T15:01:50;23.50;54.00
41220;DHT22;26951;47.338;9.196;2023-07-24T15:04:34;23.40;53.90
41220;DHT22;26951;47.338;9.196;2023-07-24T15:07:18;23.20;54.60
41220;DHT22;26951;47.338;9.196;2023-07-24T15:10:02;23.00;55.70
41220;DHT22;26951;47.338;9.196;2023-07-24T15:12:46;22.80;58.70
41220;DHT22;26951;47.338;9.196;2023-07-24T15:15:30;22.60;60.30
41220;DHT22;26951;47.338;9.196;2023-07-24T15:18:14;22.50;62.40
41220;DHT22;26951;47.338;9.196;2023-07-24T15:20:58;22.40;59.60
41220;DHT22;26951;47.338;9.196;2023-07-24T15:23:43;22.30;56.20
41220;DHT22;26951;47.338;9.196;2023-07-24T15:26:27;22.20;58.80
41220;DHT22;26951;47.338;9.196;2023-07-24T15:29:12;22.10;56.40
41220;DHT22;26951;47.338;9.196;2023-07-24T15:31:58;22.10;56.60
41220;DHT22;26951;47.338;9.196;2023-07-24T15:34:42;22.20;61.60
41220;DHT22;26951;47.338;9.196;2023-07-24T15:37:27;22.20;60.00
41220;DHT22;26951;47.338;9.196;2023-07-24T15:40:13;22.10;60.50
41220;DHT22;26951;47.338;9.196;2023-07-24T15:42:57;22.20;62.80
41220;DHT22;26951;47.338;9.196;2023-07-24T15:45:41;22.20;62.30
41220;DHT22;26951;47.338;9.196;2023-07-24T15:48:25;22.20;59.60
41220;DHT22;26951;47.338;9.196;2023-07-24T15:51:09;22.10;59.30
41220;DHT22;26951;47.338;9.196;2023-07-24T15:53:54;22.10;58.80
41220;DHT22;26951;47.338;9.196;2023-07-24T15:56:38;21.90;58.40
41220;DHT22;26951;47.338;9.196;2023-07-24T15:59:23;21.80;58.60
41220;DHT22;26951;47.338;9.196;2023-07-24T16:02:07;21.70;57.70
41220;DHT22;26951;47.338;9.196;2023-07-24T16:04:51;21.60;56.50
41220;DHT22;26951;47.338;9.196;2023-07-24T16:07:37;21.50;56.20
41220;DHT22;26951;47.338;9.196;2023-07-24T16:10:22;21.40;57.90
41220;DHT22;26951;47.338;9.196;2023-07-24T16:13:06;21.20;58.70
41220;DHT22;26951;47.338;9.196;2023-07-24T16:15:51;21.10;60.30
41220;DHT22;26951;47.338;9.196;2023-07-24T16:18:36;21.00;61.00
41220;DHT22;26951;47.338;9.196;2023-07-24T16:21:21;21.00;61.80
41220;DHT22;26951;47.338;9.196;2023-07-24T16:24:05;21.00;61.90
41220;DHT22;26951;47.338;9.196;2023-07-24T16:26:50;21.00;60.90
41220;DHT22;26951;47.338;9.196;2023-07-24T16:29:34;21.00;60.90
41220;DHT22;26951;47.338;9.196;2023-07-24T16:32:19;20.90;60.80
41220;DHT22;26951;47.338;9.196;2023-07-24T16:35:04;20.80;60.50
41220;DHT22;26951;47.338;9.196;2023-07-24T16:37:48;20.70;60.40
41220;DHT22;26951;47.338;9.196;2023-07-24T16:40:32;20.60;60.00
41220;DHT22;26951;47.338;9.196;2023-07-24T16:43:17;20.40;60.60
41220;DHT22;26951;47.338;9.196;2023-07-24T16:46:01;20.30;60.80
41220;DHT22;26951;47.338;9.196;2023-07-24T16:48:45;20.20;61.50
41220;DHT22;26951;47.338;9.196;2023-07-24T16:51:32;20.20;61.00
41220;DHT22;26951;47.338;9.196;2023-07-24T16:54:16;20.20;60.70
41220;DHT22;26951;47.338;9.196;2023-07-24T16:57:00;20.20;60.80
41220;DHT22;26951;47.338;9.196;2023-07-24T16:59:44;20.10;61.20
41220;DHT22;26951;47.338;9.196;2023-07-24T17:02:28;20.10;61.40
41220;DHT22;26951;47.338;9.196;2023-07-24T17:05:12;20.20;61.80
41220;DHT22;26951;47.338;9.196;2023-07-24T17:07:56;20.10;61.70
41220;DHT22;26951;47.338;9.196;2023-07-24T17:10:42;20.10;61.60
41220;DHT22;26951;47.338;9.196;2023-07-24T17:13:27;20.00;61.40
41220;DHT22;26951;47.338;9.196;2023-07-24T17:16:11;20.00;61.60
41220;DHT22;26951;47.338;9.196;2023-07-24T17:18:55;20.00;61.60
41220;DHT22;26951;47.338;9.196;2023-07-24T17:21:40;19.90;61.70
41220;DHT22;26951;47.338;9.196;2023-07-24T17:24:24;19.70;63.10